DLH722 LOWW-EGLL
Flight info
| Callsign | DLH722 |
|---|---|
| Flight time | N/A |
| Altitude | 40000 |
| Route | BUWUT1C BUWUT DCT DITIS DCT RAPET DCT MASEK DCT ARPEG DCT ABNED L980 LOGAN LOGAN2H |
| Aircraft | A359/H-SDE2E3GHIJ3J4J5LM1ORWXY/LB1D1 |
Departure
| Time | 2026-04-22 19:15 |
|---|---|
| Airport | Vienna International Airport (LOWW) |
Arrival
| Time | N/A |
|---|---|
| Airport | London Heathrow Airport (EGLL) |
| Time | Latitude | Longitude | Altitude | Speed | Heading |
|---|---|---|---|---|---|
| 2026-04-22 18:28 | 48.12017 | 16.56924 | 629 ft | 0 kts | 26° |
| 2026-04-22 18:28 | 48.12018 | 16.56925 | 629 ft | 0 kts | 26° |
| 2026-04-22 19:00 | 48.12004 | 16.56914 | 630 ft | 2 kts | 25° |
| 2026-04-22 19:01 | 48.11987 | 16.56895 | 621 ft | 4 kts | 82° |
| 2026-04-22 19:01 | 48.11992 | 16.56862 | 630 ft | 4 kts | 115° |
| 2026-04-22 19:01 | 48.12003 | 16.56826 | 630 ft | 3 kts | 115° |
| 2026-04-22 19:01 | 48.12005 | 16.56821 | 630 ft | 0 kts | 115° |
| 2026-04-22 19:06 | 48.12004 | 16.56822 | 630 ft | 2 kts | 116° |
| 2026-04-22 19:07 | 48.11920 | 16.57009 | 622 ft | 14 kts | 115° |
| 2026-04-22 19:07 | 48.11873 | 16.57157 | 626 ft | 17 kts | 116° |
| 2026-04-22 19:07 | 48.11812 | 16.57319 | 630 ft | 19 kts | 136° |
| 2026-04-22 19:07 | 48.11689 | 16.57396 | 626 ft | 20 kts | 164° |
| 2026-04-22 19:08 | 48.11546 | 16.57454 | 624 ft | 22 kts | 168° |
| 2026-04-22 19:08 | 48.11410 | 16.57400 | 628 ft | 15 kts | 205° |
| 2026-04-22 19:08 | 48.11364 | 16.57368 | 623 ft | 0 kts | 205° |
| 2026-04-22 19:08 | 48.11344 | 16.57353 | 630 ft | 9 kts | 206° |
| 2026-04-22 19:09 | 48.11269 | 16.57298 | 630 ft | 14 kts | 205° |
| 2026-04-22 19:09 | 48.11193 | 16.57338 | 626 ft | 14 kts | 128° |
| 2026-04-22 19:09 | 48.11129 | 16.57519 | 626 ft | 24 kts | 117° |
| 2026-04-22 19:09 | 48.11058 | 16.57646 | 627 ft | 8 kts | 180° |
| 2026-04-22 19:10 | 48.11038 | 16.57638 | 622 ft | 0 kts | 199° |
| 2026-04-22 19:14 | 48.11031 | 16.57634 | 619 ft | 6 kts | 200° |
| 2026-04-22 19:14 | 48.10942 | 16.57564 | 630 ft | 16 kts | 229° |
| 2026-04-22 19:14 | 48.10950 | 16.57425 | 630 ft | 14 kts | 295° |
| 2026-04-22 19:15 | 48.11008 | 16.57244 | 626 ft | 53 kts | 295° |
| 2026-04-22 19:15 | 48.11409 | 16.56009 | 631 ft | 143 kts | 295° |
| 2026-04-22 19:15 | 48.11852 | 16.54520 | 1109 ft | 159 kts | 292° |
| 2026-04-22 19:15 | 48.11768 | 16.52867 | 1898 ft | 173 kts | 251° |
| 2026-04-22 19:16 | 48.10912 | 16.51417 | 2239 ft | 201 kts | 218° |
| 2026-04-22 19:16 | 48.09727 | 16.50150 | 2566 ft | 218 kts | 226° |
| 2026-04-22 19:16 | 48.08623 | 16.48540 | 3159 ft | 224 kts | 231° |
| 2026-04-22 19:16 | 48.07653 | 16.46730 | 3841 ft | 222 kts | 244° |
| 2026-04-22 19:17 | 48.06911 | 16.44614 | 4268 ft | 240 kts | 250° |
| 2026-04-22 19:17 | 48.06200 | 16.42270 | 4612 ft | 260 kts | 250° |
| 2026-04-22 19:17 | 48.05449 | 16.39756 | 5203 ft | 269 kts | 250° |
| 2026-04-22 19:17 | 48.04676 | 16.37183 | 5921 ft | 273 kts | 250° |
| 2026-04-22 19:18 | 48.03896 | 16.34588 | 6737 ft | 274 kts | 250° |
| 2026-04-22 19:18 | 48.03368 | 16.31874 | 7443 ft | 271 kts | 269° |
| 2026-04-22 19:18 | 48.03365 | 16.29059 | 8175 ft | 272 kts | 278° |
| 2026-04-22 19:18 | 48.03496 | 16.26218 | 8891 ft | 276 kts | 278° |
| 2026-04-22 19:19 | 48.03642 | 16.23336 | 9611 ft | 281 kts | 278° |
| 2026-04-22 19:19 | 48.04042 | 16.20484 | 10244 ft | 282 kts | 295° |
| 2026-04-22 19:19 | 48.04873 | 16.17798 | 10594 ft | 296 kts | 301° |
| 2026-04-22 19:19 | 48.05878 | 16.15010 | 10880 ft | 314 kts | 302° |
| 2026-04-22 19:20 | 48.06949 | 16.12052 | 11175 ft | 330 kts | 302° |
| 2026-04-22 19:20 | 48.08054 | 16.08966 | 11539 ft | 342 kts | 302° |
| 2026-04-22 19:20 | 48.09180 | 16.05796 | 12038 ft | 348 kts | 301° |
| 2026-04-22 19:20 | 48.10361 | 16.02614 | 12613 ft | 351 kts | 306° |
| 2026-04-22 19:21 | 48.11903 | 15.99805 | 13201 ft | 349 kts | 320° |
| 2026-04-22 19:21 | 48.13811 | 15.97556 | 13778 ft | 350 kts | 328° |
| 2026-04-22 19:21 | 48.15797 | 15.95528 | 14320 ft | 352 kts | 330° |
| 2026-04-22 19:21 | 48.17851 | 15.93494 | 14832 ft | 356 kts | 330° |
| 2026-04-22 19:22 | 48.19931 | 15.91447 | 15386 ft | 358 kts | 330° |
| 2026-04-22 19:22 | 48.22025 | 15.89392 | 15917 ft | 362 kts | 330° |
| 2026-04-22 19:22 | 48.24141 | 15.87317 | 16449 ft | 365 kts | 331° |
| 2026-04-22 19:22 | 48.26276 | 15.85221 | 16984 ft | 368 kts | 331° |
| 2026-04-22 19:23 | 48.28422 | 15.83113 | 17513 ft | 371 kts | 331° |
| 2026-04-22 19:23 | 48.30590 | 15.80983 | 18038 ft | 374 kts | 331° |
| 2026-04-22 19:23 | 48.32774 | 15.78836 | 18567 ft | 377 kts | 331° |
| 2026-04-22 19:23 | 48.34980 | 15.76664 | 18990 ft | 381 kts | 331° |
| 2026-04-22 19:24 | 48.37174 | 15.74502 | 19427 ft | 384 kts | 331° |
| 2026-04-22 19:24 | 48.39419 | 15.72288 | 19847 ft | 387 kts | 331° |
| 2026-04-22 19:24 | 48.41677 | 15.70057 | 20260 ft | 390 kts | 331° |
| 2026-04-22 19:24 | 48.43959 | 15.67801 | 20655 ft | 394 kts | 331° |
| 2026-04-22 19:25 | 48.46258 | 15.65526 | 21041 ft | 398 kts | 332° |
| 2026-04-22 19:25 | 48.48582 | 15.63224 | 21423 ft | 401 kts | 332° |
| 2026-04-22 19:25 | 48.50925 | 15.60899 | 21838 ft | 404 kts | 332° |
| 2026-04-22 19:25 | 48.53282 | 15.58559 | 22238 ft | 407 kts | 332° |
| 2026-04-22 19:26 | 48.55658 | 15.56197 | 22630 ft | 411 kts | 332° |
| 2026-04-22 19:26 | 48.58052 | 15.53813 | 23020 ft | 414 kts | 332° |
| 2026-04-22 19:26 | 48.60427 | 15.51446 | 23400 ft | 417 kts | 332° |
| 2026-04-22 19:26 | 48.62855 | 15.49023 | 23771 ft | 420 kts | 332° |
| 2026-04-22 19:27 | 48.65303 | 15.46577 | 24110 ft | 423 kts | 332° |
| 2026-04-22 19:27 | 48.67771 | 15.44110 | 24415 ft | 427 kts | 332° |
| 2026-04-22 19:27 | 48.70255 | 15.41623 | 24726 ft | 430 kts | 332° |
| 2026-04-22 19:27 | 48.72762 | 15.39111 | 24976 ft | 435 kts | 332° |
| 2026-04-22 19:28 | 48.75295 | 15.36570 | 25263 ft | 439 kts | 332° |
| 2026-04-22 19:28 | 48.77841 | 15.34000 | 25618 ft | 442 kts | 332° |
| 2026-04-22 19:28 | 48.80280 | 15.31069 | 25953 ft | 453 kts | 322° |
| 2026-04-22 19:28 | 48.82395 | 15.27470 | 26303 ft | 462 kts | 314° |
| 2026-04-22 19:29 | 48.84342 | 15.23627 | 26624 ft | 468 kts | 311° |
| 2026-04-22 19:29 | 48.86253 | 15.19596 | 26989 ft | 473 kts | 310° |
| 2026-04-22 19:29 | 48.88146 | 15.15486 | 27355 ft | 477 kts | 310° |
| 2026-04-22 19:29 | 48.90049 | 15.11332 | 27727 ft | 481 kts | 310° |
| 2026-04-22 19:30 | 48.91330 | 15.08574 | 27977 ft | 484 kts | 310° |
| 2026-04-22 19:30 | 48.93994 | 15.03013 | 28477 ft | 489 kts | 311° |
| 2026-04-22 19:30 | 48.96028 | 14.98848 | 28866 ft | 493 kts | 311° |
| 2026-04-22 19:30 | 48.98089 | 14.94647 | 29265 ft | 497 kts | 312° |
| 2026-04-22 19:31 | 49.00135 | 14.90472 | 29657 ft | 501 kts | 311° |
| 2026-04-22 19:31 | 49.02224 | 14.86195 | 30068 ft | 504 kts | 311° |
| 2026-04-22 19:31 | 49.04319 | 14.81888 | 30444 ft | 509 kts | 311° |
| 2026-04-22 19:31 | 49.06431 | 14.77532 | 30850 ft | 511 kts | 311° |
| 2026-04-22 19:32 | 49.08537 | 14.73172 | 31301 ft | 511 kts | 311° |
| 2026-04-22 19:32 | 49.10641 | 14.68806 | 31753 ft | 511 kts | 311° |
| 2026-04-22 19:32 | 49.12748 | 14.64428 | 32184 ft | 512 kts | 310° |
| 2026-04-22 19:32 | 49.14852 | 14.60051 | 32590 ft | 513 kts | 310° |
| 2026-04-22 19:33 | 49.16966 | 14.55648 | 32969 ft | 514 kts | 310° |
| 2026-04-22 19:33 | 49.19082 | 14.51235 | 33306 ft | 515 kts | 310° |
| 2026-04-22 19:33 | 49.21197 | 14.46815 | 33740 ft | 514 kts | 310° |
| 2026-04-22 19:33 | 49.23270 | 14.42473 | 34314 ft | 510 kts | 310° |
| 2026-04-22 19:34 | 49.25353 | 14.38102 | 34802 ft | 507 kts | 310° |
| 2026-04-22 19:34 | 49.27421 | 14.33755 | 35228 ft | 504 kts | 310° |
| 2026-04-22 19:34 | 49.29478 | 14.29427 | 35653 ft | 502 kts | 310° |
| 2026-04-22 19:34 | 49.31524 | 14.25117 | 36043 ft | 500 kts | 310° |
| 2026-04-22 19:35 | 49.33538 | 14.20872 | 36303 ft | 502 kts | 310° |
| 2026-04-22 19:35 | 49.35566 | 14.16590 | 36621 ft | 501 kts | 310° |
| 2026-04-22 19:35 | 49.36919 | 14.13727 | 36896 ft | 500 kts | 309° |
| 2026-04-22 19:35 | 49.39639 | 14.07961 | 37494 ft | 497 kts | 309° |
| 2026-04-22 19:36 | 49.41657 | 14.03676 | 37901 ft | 494 kts | 309° |
| 2026-04-22 19:36 | 49.43640 | 13.99457 | 38292 ft | 493 kts | 309° |
| 2026-04-22 19:36 | 49.45642 | 13.95190 | 38668 ft | 491 kts | 309° |
| 2026-04-22 19:36 | 49.47632 | 13.90945 | 39052 ft | 488 kts | 309° |
| 2026-04-22 19:37 | 49.49630 | 13.86674 | 39292 ft | 488 kts | 309° |
| 2026-04-22 19:37 | 49.51595 | 13.82471 | 39477 ft | 488 kts | 309° |
| 2026-04-22 19:37 | 49.53556 | 13.78263 | 39957 ft | 475 kts | 309° |
| 2026-04-22 19:37 | 49.55432 | 13.74220 | 40223 ft | 454 kts | 309° |
| 2026-04-22 19:38 | 49.57231 | 13.70334 | 40292 ft | 438 kts | 309° |
| 2026-04-22 19:38 | 49.58977 | 13.66565 | 40291 ft | 425 kts | 309° |
| 2026-04-22 19:38 | 49.60660 | 13.62935 | 40295 ft | 421 kts | 309° |
| 2026-04-22 19:39 | 49.64067 | 13.55596 | 40288 ft | 421 kts | 309° |
| 2026-04-22 19:39 | 49.67470 | 13.48239 | 40294 ft | 421 kts | 309° |
| 2026-04-22 19:40 | 49.70869 | 13.40857 | 40292 ft | 422 kts | 309° |
| 2026-04-22 19:40 | 49.74293 | 13.33403 | 40295 ft | 430 kts | 309° |
| 2026-04-22 19:41 | 49.77767 | 13.25819 | 40294 ft | 441 kts | 309° |
| 2026-04-22 19:41 | 49.81350 | 13.17971 | 40297 ft | 452 kts | 309° |
| 2026-04-22 19:42 | 49.85011 | 13.09925 | 40307 ft | 463 kts | 308° |
| 2026-04-22 19:42 | 49.88737 | 13.01711 | 40307 ft | 474 kts | 308° |
| 2026-04-22 19:43 | 49.94507 | 12.88940 | 40313 ft | 489 kts | 308° |
| 2026-04-22 19:43 | 49.98428 | 12.80220 | 40300 ft | 493 kts | 308° |
| 2026-04-22 19:44 | 50.02347 | 12.71474 | 40301 ft | 493 kts | 308° |
| 2026-04-22 19:44 | 50.06261 | 12.62712 | 40307 ft | 493 kts | 308° |
| 2026-04-22 19:45 | 50.10141 | 12.54003 | 40303 ft | 493 kts | 308° |
| 2026-04-22 19:45 | 50.14045 | 12.45212 | 40312 ft | 493 kts | 308° |
| 2026-04-22 19:46 | 50.17875 | 12.36341 | 40319 ft | 495 kts | 303° |
| 2026-04-22 19:46 | 50.20622 | 12.26451 | 40324 ft | 499 kts | 292° |
| 2026-04-22 19:47 | 50.22841 | 12.16165 | 40323 ft | 500 kts | 291° |
| 2026-04-22 19:47 | 50.24947 | 12.05884 | 40322 ft | 500 kts | 290° |
| 2026-04-22 19:48 | 50.27066 | 11.95523 | 40317 ft | 501 kts | 290° |
| 2026-04-22 19:48 | 50.29195 | 11.85155 | 40319 ft | 500 kts | 290° |
| 2026-04-22 19:49 | 50.31321 | 11.74792 | 40319 ft | 501 kts | 290° |
| 2026-04-22 19:49 | 50.33426 | 11.64484 | 40319 ft | 501 kts | 290° |
| 2026-04-22 19:50 | 50.35533 | 11.54102 | 40316 ft | 500 kts | 290° |
| 2026-04-22 19:50 | 50.37624 | 11.43742 | 40325 ft | 499 kts | 290° |
| 2026-04-22 19:51 | 50.39709 | 11.33357 | 40326 ft | 499 kts | 290° |
| 2026-04-22 19:51 | 50.41774 | 11.23021 | 40327 ft | 499 kts | 290° |
| 2026-04-22 19:52 | 50.43838 | 11.12628 | 40330 ft | 499 kts | 290° |
| 2026-04-22 19:52 | 50.45891 | 11.02239 | 40331 ft | 498 kts | 290° |
| 2026-04-22 19:53 | 50.47931 | 10.91859 | 40337 ft | 498 kts | 290° |
| 2026-04-22 19:53 | 50.49965 | 10.81466 | 40333 ft | 498 kts | 290° |
| 2026-04-22 19:54 | 50.52140 | 10.71164 | 40337 ft | 497 kts | 292° |
| 2026-04-22 19:54 | 50.54389 | 10.60887 | 40336 ft | 497 kts | 291° |
| 2026-04-22 19:55 | 50.56591 | 10.50666 | 40336 ft | 497 kts | 291° |
| 2026-04-22 19:55 | 50.58779 | 10.40345 | 40335 ft | 497 kts | 291° |
| 2026-04-22 19:56 | 50.60950 | 10.30007 | 40332 ft | 497 kts | 291° |
| 2026-04-22 19:56 | 50.63110 | 10.19671 | 40329 ft | 497 kts | 291° |
| 2026-04-22 19:57 | 50.65246 | 10.09400 | 40330 ft | 497 kts | 291° |
| 2026-04-22 19:57 | 50.67390 | 9.99039 | 40329 ft | 497 kts | 291° |
| 2026-04-22 19:58 | 50.69525 | 9.88673 | 40327 ft | 497 kts | 290° |
| 2026-04-22 19:58 | 50.71652 | 9.78289 | 40326 ft | 498 kts | 290° |
| 2026-04-22 20:00 | 50.79024 | 9.41877 | 40327 ft | 499 kts | 290° |
| 2026-04-22 20:01 | 50.81113 | 9.31434 | 40336 ft | 498 kts | 290° |
| 2026-04-22 20:01 | 50.83192 | 9.20978 | 40336 ft | 498 kts | 290° |
| 2026-04-22 20:02 | 50.85262 | 9.10519 | 40335 ft | 498 kts | 290° |
| 2026-04-22 20:02 | 50.87308 | 9.00120 | 40337 ft | 498 kts | 290° |
| 2026-04-22 20:03 | 50.89360 | 8.89637 | 40336 ft | 498 kts | 290° |
| 2026-04-22 20:03 | 50.91403 | 8.79147 | 40342 ft | 498 kts | 290° |
| 2026-04-22 20:04 | 50.93437 | 8.68641 | 40344 ft | 498 kts | 289° |
| 2026-04-22 20:04 | 50.95447 | 8.58200 | 40344 ft | 498 kts | 289° |
| 2026-04-22 20:05 | 50.97462 | 8.47680 | 40343 ft | 498 kts | 289° |
| 2026-04-22 20:05 | 50.99461 | 8.37177 | 40346 ft | 497 kts | 289° |
| 2026-04-22 20:06 | 51.01451 | 8.26667 | 40345 ft | 497 kts | 289° |
| 2026-04-22 20:06 | 51.03419 | 8.16224 | 40346 ft | 497 kts | 289° |
| 2026-04-22 20:07 | 51.05389 | 8.05701 | 40335 ft | 497 kts | 289° |
| 2026-04-22 20:07 | 51.07349 | 7.95173 | 40347 ft | 497 kts | 289° |
| 2026-04-22 20:08 | 51.09303 | 7.84620 | 40350 ft | 497 kts | 289° |
| 2026-04-22 20:08 | 51.11248 | 7.74060 | 40349 ft | 498 kts | 288° |
| 2026-04-22 20:09 | 51.13171 | 7.63549 | 40349 ft | 498 kts | 288° |
| 2026-04-22 20:09 | 51.15095 | 7.52974 | 40346 ft | 497 kts | 288° |
| 2026-04-22 20:10 | 51.17010 | 7.42394 | 40347 ft | 497 kts | 288° |
| 2026-04-22 20:10 | 51.18912 | 7.31818 | 40346 ft | 497 kts | 288° |
| 2026-04-22 20:11 | 51.20805 | 7.21231 | 40344 ft | 497 kts | 288° |
| 2026-04-22 20:11 | 51.22677 | 7.10702 | 40342 ft | 497 kts | 288° |
| 2026-04-22 20:12 | 51.24550 | 7.00105 | 40348 ft | 496 kts | 288° |
| 2026-04-22 20:12 | 51.26099 | 6.91289 | 40347 ft | 496 kts | 288° |
| 2026-04-22 20:13 | 51.28267 | 6.78884 | 40346 ft | 496 kts | 288° |
| 2026-04-22 20:13 | 51.30097 | 6.68346 | 40336 ft | 496 kts | 288° |
| 2026-04-22 20:14 | 51.31931 | 6.57718 | 40346 ft | 495 kts | 287° |
| 2026-04-22 20:14 | 51.33750 | 6.47114 | 40356 ft | 495 kts | 287° |
| 2026-04-22 20:15 | 51.35562 | 6.36485 | 40362 ft | 495 kts | 287° |
| 2026-04-22 20:15 | 51.37347 | 6.25951 | 40365 ft | 495 kts | 287° |
| 2026-04-22 20:16 | 51.39139 | 6.15308 | 40365 ft | 493 kts | 287° |
| 2026-04-22 20:16 | 51.40912 | 6.04713 | 40364 ft | 492 kts | 287° |
| 2026-04-22 20:17 | 51.42672 | 5.94133 | 40364 ft | 492 kts | 287° |
| 2026-04-22 20:17 | 51.44431 | 5.83500 | 40364 ft | 494 kts | 287° |
| 2026-04-22 20:18 | 51.46169 | 5.72922 | 40361 ft | 494 kts | 286° |
| 2026-04-22 20:18 | 51.47903 | 5.62299 | 40368 ft | 492 kts | 286° |
| 2026-04-22 20:19 | 51.49626 | 5.51677 | 40373 ft | 492 kts | 286° |
| 2026-04-22 20:19 | 51.51340 | 5.41049 | 40374 ft | 492 kts | 286° |
| 2026-04-22 20:20 | 51.53044 | 5.30414 | 40380 ft | 492 kts | 286° |
| 2026-04-22 20:20 | 51.54724 | 5.19857 | 40371 ft | 490 kts | 286° |
| 2026-04-22 20:21 | 51.56399 | 5.09262 | 40373 ft | 489 kts | 286° |
| 2026-04-22 20:21 | 51.58064 | 4.98667 | 40377 ft | 489 kts | 286° |
| 2026-04-22 20:22 | 51.59720 | 4.88064 | 40380 ft | 489 kts | 286° |
| 2026-04-22 20:22 | 51.61367 | 4.77443 | 40374 ft | 489 kts | 286° |
| 2026-04-22 20:23 | 51.62990 | 4.66907 | 40356 ft | 488 kts | 286° |
| 2026-04-22 20:23 | 51.64615 | 4.56295 | 40357 ft | 488 kts | 285° |
| 2026-04-22 20:24 | 51.66231 | 4.45672 | 40357 ft | 488 kts | 285° |
| 2026-04-22 20:24 | 51.67836 | 4.35044 | 40342 ft | 488 kts | 285° |
| 2026-04-22 20:25 | 51.69422 | 4.24479 | 40351 ft | 488 kts | 285° |
| 2026-04-22 20:25 | 51.71008 | 4.13840 | 40354 ft | 488 kts | 285° |
| 2026-04-22 20:26 | 51.72586 | 4.03179 | 40358 ft | 488 kts | 285° |
| 2026-04-22 20:26 | 51.74154 | 3.92518 | 40355 ft | 489 kts | 285° |
| 2026-04-22 20:27 | 51.75712 | 3.81846 | 40355 ft | 489 kts | 285° |
| 2026-04-22 20:27 | 51.77249 | 3.71248 | 40360 ft | 488 kts | 285° |
| 2026-04-22 20:28 | 51.78786 | 3.60580 | 40364 ft | 488 kts | 285° |
| 2026-04-22 20:28 | 51.80312 | 3.49901 | 40371 ft | 488 kts | 285° |
| 2026-04-22 20:29 | 51.81059 | 3.38981 | 40366 ft | 491 kts | 274° |
| 2026-04-22 20:29 | 51.81077 | 3.33467 | 40201 ft | 491 kts | 272° |
| 2026-04-22 20:29 | 51.80997 | 3.28023 | 40122 ft | 493 kts | 270° |
| 2026-04-22 20:29 | 51.80868 | 3.22476 | 40234 ft | 495 kts | 270° |
| 2026-04-22 20:30 | 51.80728 | 3.16921 | 40362 ft | 495 kts | 270° |
| 2026-04-22 20:30 | 51.80461 | 3.05837 | 40382 ft | 493 kts | 270° |
| 2026-04-22 20:31 | 51.80224 | 2.95028 | 40384 ft | 493 kts | 270° |
| 2026-04-22 20:31 | 51.79986 | 2.83968 | 40385 ft | 492 kts | 270° |
| 2026-04-22 20:32 | 51.79741 | 2.72986 | 40387 ft | 492 kts | 270° |
| 2026-04-22 20:32 | 51.79484 | 2.61932 | 40389 ft | 492 kts | 270° |
| 2026-04-22 20:33 | 51.79208 | 2.50886 | 40387 ft | 493 kts | 268° |
| 2026-04-22 20:33 | 51.78264 | 2.41800 | 40366 ft | 497 kts | 256° |
| 2026-04-22 20:33 | 51.77023 | 2.36596 | 40377 ft | 498 kts | 245° |
| 2026-04-22 20:34 | 51.74567 | 2.30357 | 40385 ft | 498 kts | 232° |
| 2026-04-22 20:34 | 51.69312 | 2.23067 | 40375 ft | 503 kts | 211° |
| 2026-04-22 20:34 | 51.66102 | 2.20799 | 40370 ft | 505 kts | 199° |
| 2026-04-22 20:35 | 51.62696 | 2.19394 | 40356 ft | 507 kts | 193° |
| 2026-04-22 20:35 | 51.60412 | 2.18594 | 40238 ft | 506 kts | 193° |
| 2026-04-22 20:35 | 51.56975 | 2.17363 | 40003 ft | 506 kts | 193° |
| 2026-04-22 20:35 | 51.53543 | 2.16075 | 39770 ft | 507 kts | 194° |
| 2026-04-22 20:36 | 51.50113 | 2.14747 | 39527 ft | 506 kts | 194° |
| 2026-04-22 20:36 | 51.46702 | 2.13404 | 39306 ft | 506 kts | 195° |
| 2026-04-22 20:36 | 51.43279 | 2.12043 | 39089 ft | 507 kts | 195° |
| 2026-04-22 20:36 | 51.39862 | 2.10679 | 38815 ft | 506 kts | 195° |
| 2026-04-22 20:37 | 51.36456 | 2.09319 | 38228 ft | 503 kts | 195° |
| 2026-04-22 20:37 | 51.33058 | 2.07962 | 37491 ft | 502 kts | 195° |
| 2026-04-22 20:37 | 51.29668 | 2.06609 | 36730 ft | 502 kts | 196° |
| 2026-04-22 20:37 | 51.26277 | 2.05256 | 35963 ft | 503 kts | 196° |
| 2026-04-22 20:38 | 51.22872 | 2.03899 | 35165 ft | 506 kts | 197° |
| 2026-04-22 20:38 | 51.19506 | 2.02509 | 34294 ft | 508 kts | 199° |
| 2026-04-22 20:38 | 51.16261 | 2.00338 | 33282 ft | 505 kts | 214° |
| 2026-04-22 20:38 | 51.13485 | 1.96994 | 32303 ft | 498 kts | 229° |
| 2026-04-22 20:39 | 51.11372 | 1.92710 | 31404 ft | 489 kts | 244° |
| 2026-04-22 20:39 | 51.10016 | 1.87824 | 30500 ft | 479 kts | 259° |
| 2026-04-22 20:39 | 51.09502 | 1.82656 | 29519 ft | 467 kts | 275° |
| 2026-04-22 20:39 | 51.09824 | 1.77606 | 28840 ft | 455 kts | 283° |
| 2026-04-22 20:40 | 51.10218 | 1.72632 | 28222 ft | 452 kts | 279° |
| 2026-04-22 20:40 | 51.10355 | 1.67653 | 27604 ft | 449 kts | 274° |
| 2026-04-22 20:40 | 51.10292 | 1.62700 | 26977 ft | 447 kts | 271° |
| 2026-04-22 20:40 | 51.10113 | 1.57848 | 26354 ft | 444 kts | 269° |
| 2026-04-22 20:41 | 51.09864 | 1.52963 | 25734 ft | 443 kts | 268° |
| 2026-04-22 20:41 | 51.09577 | 1.48096 | 25105 ft | 442 kts | 267° |
| 2026-04-22 20:41 | 51.09267 | 1.43237 | 24479 ft | 441 kts | 266° |
| 2026-04-22 20:41 | 51.08945 | 1.38394 | 23814 ft | 439 kts | 266° |
| 2026-04-22 20:42 | 51.08616 | 1.33573 | 23112 ft | 438 kts | 266° |
| 2026-04-22 20:42 | 51.08283 | 1.28769 | 22464 ft | 436 kts | 265° |
| 2026-04-22 20:42 | 51.07948 | 1.23985 | 21821 ft | 434 kts | 265° |
| 2026-04-22 20:42 | 51.07612 | 1.19238 | 21185 ft | 431 kts | 264° |
| 2026-04-22 20:43 | 51.07280 | 1.14573 | 20274 ft | 433 kts | 264° |
| 2026-04-22 20:43 | 51.06941 | 1.09842 | 18772 ft | 431 kts | 263° |
| 2026-04-22 20:43 | 51.06597 | 1.05075 | 16974 ft | 435 kts | 263° |
| 2026-04-22 20:43 | 51.06251 | 1.00318 | 15596 ft | 429 kts | 262° |
| 2026-04-22 20:44 | 51.05893 | 0.95688 | 14832 ft | 415 kts | 259° |
| 2026-04-22 20:44 | 51.05170 | 0.91423 | 14400 ft | 385 kts | 246° |
| 2026-04-22 20:44 | 51.04124 | 0.87664 | 13964 ft | 360 kts | 242° |
| 2026-04-22 20:44 | 51.03085 | 0.84188 | 13510 ft | 338 kts | 242° |
| 2026-04-22 20:45 | 51.02104 | 0.80909 | 13063 ft | 320 kts | 242° |
| 2026-04-22 20:45 | 51.01166 | 0.77764 | 12555 ft | 312 kts | 242° |
| 2026-04-22 20:45 | 51.00247 | 0.74681 | 11903 ft | 305 kts | 242° |
| 2026-04-22 20:45 | 50.99355 | 0.71639 | 11139 ft | 303 kts | 244° |
| 2026-04-22 20:46 | 50.98895 | 0.65076 | 9659 ft | 302 kts | 270° |
| 2026-04-22 20:46 | 50.98993 | 0.61762 | 8943 ft | 299 kts | 271° |
| 2026-04-22 20:46 | 50.99102 | 0.58475 | 8549 ft | 298 kts | 271° |
| 2026-04-22 20:47 | 50.99211 | 0.55170 | 8454 ft | 298 kts | 271° |
| 2026-04-22 20:47 | 50.99314 | 0.51977 | 8450 ft | 281 kts | 271° |
| 2026-04-22 20:47 | 50.99415 | 0.48931 | 8462 ft | 275 kts | 271° |
| 2026-04-22 20:47 | 50.99515 | 0.45900 | 8470 ft | 274 kts | 271° |
| 2026-04-22 20:48 | 50.99619 | 0.42883 | 8469 ft | 274 kts | 271° |
| 2026-04-22 20:48 | 50.99724 | 0.39861 | 8472 ft | 274 kts | 271° |
| 2026-04-22 20:48 | 50.99830 | 0.36836 | 8468 ft | 275 kts | 271° |
| 2026-04-22 20:48 | 50.99935 | 0.33809 | 8464 ft | 275 kts | 271° |
| 2026-04-22 20:49 | 51.00043 | 0.30777 | 8463 ft | 275 kts | 271° |
| 2026-04-22 20:49 | 51.00148 | 0.27760 | 8460 ft | 282 kts | 271° |
| 2026-04-22 20:49 | 51.00254 | 0.24634 | 8453 ft | 285 kts | 271° |
| 2026-04-22 20:49 | 51.00357 | 0.21514 | 8222 ft | 281 kts | 271° |
| 2026-04-22 20:50 | 51.00460 | 0.18410 | 7756 ft | 282 kts | 271° |
| 2026-04-22 20:50 | 51.00559 | 0.15304 | 7472 ft | 281 kts | 271° |
| 2026-04-22 20:50 | 51.00661 | 0.12199 | 7421 ft | 281 kts | 271° |
| 2026-04-22 20:50 | 51.00763 | 0.09098 | 7404 ft | 281 kts | 271° |
| 2026-04-22 20:51 | 51.00865 | 0.05993 | 7399 ft | 282 kts | 271° |
| 2026-04-22 20:51 | 51.00966 | 0.02893 | 7387 ft | 281 kts | 271° |
| 2026-04-22 20:51 | 51.01069 | -0.00207 | 7346 ft | 282 kts | 271° |
| 2026-04-22 20:51 | 51.01170 | -0.03317 | 7344 ft | 281 kts | 271° |
| 2026-04-22 20:52 | 51.01268 | -0.06413 | 7342 ft | 281 kts | 271° |
| 2026-04-22 20:52 | 51.01362 | -0.09468 | 7344 ft | 281 kts | 271° |
| 2026-04-22 20:52 | 51.01458 | -0.12504 | 7334 ft | 268 kts | 271° |
| 2026-04-22 20:52 | 51.01553 | -0.15403 | 7132 ft | 260 kts | 271° |
| 2026-04-22 20:53 | 51.01644 | -0.18255 | 6842 ft | 258 kts | 271° |
| 2026-04-22 20:53 | 51.01733 | -0.21094 | 6528 ft | 256 kts | 271° |
| 2026-04-22 20:53 | 51.01824 | -0.23908 | 6185 ft | 255 kts | 271° |
| 2026-04-22 20:53 | 51.01914 | -0.26713 | 5856 ft | 253 kts | 271° |
| 2026-04-22 20:54 | 51.02005 | -0.29503 | 5523 ft | 253 kts | 271° |
| 2026-04-22 20:54 | 51.02096 | -0.32284 | 5201 ft | 251 kts | 271° |
| 2026-04-22 20:54 | 51.02188 | -0.35052 | 4856 ft | 250 kts | 271° |
| 2026-04-22 20:54 | 51.02279 | -0.37771 | 4686 ft | 242 kts | 271° |
| 2026-04-22 20:55 | 51.02371 | -0.40387 | 4521 ft | 233 kts | 271° |
| 2026-04-22 20:55 | 51.02462 | -0.42866 | 4399 ft | 222 kts | 271° |
| 2026-04-22 20:55 | 51.02552 | -0.45258 | 4250 ft | 212 kts | 271° |
| 2026-04-22 20:55 | 51.02685 | -0.47577 | 3926 ft | 211 kts | 279° |
| 2026-04-22 20:56 | 51.03384 | -0.49599 | 3548 ft | 211 kts | 319° |
| 2026-04-22 20:56 | 51.04629 | -0.50727 | 3189 ft | 204 kts | 346° |
| 2026-04-22 20:56 | 51.05968 | -0.51397 | 3005 ft | 201 kts | 351° |
| 2026-04-22 20:56 | 51.07313 | -0.52005 | 2989 ft | 201 kts | 351° |
| 2026-04-22 20:57 | 51.08660 | -0.52603 | 2988 ft | 200 kts | 351° |
| 2026-04-22 20:57 | 51.09997 | -0.52652 | 2986 ft | 187 kts | 24° |
| 2026-04-22 20:57 | 51.10936 | -0.51478 | 2990 ft | 166 kts | 70° |
| 2026-04-22 20:57 | 51.11014 | -0.49758 | 2999 ft | 158 kts | 100° |
| 2026-04-22 20:58 | 51.11012 | -0.47969 | 2993 ft | 160 kts | 89° |
| 2026-04-22 20:58 | 51.11121 | -0.46228 | 2990 ft | 161 kts | 86° |
| 2026-04-22 20:58 | 51.11310 | -0.44462 | 2987 ft | 163 kts | 83° |
| 2026-04-22 20:58 | 51.11546 | -0.42706 | 2988 ft | 162 kts | 82° |
| 2026-04-22 20:59 | 51.11790 | -0.40963 | 2840 ft | 159 kts | 82° |
| 2026-04-22 20:59 | 51.12020 | -0.39288 | 2608 ft | 151 kts | 82° |
| 2026-04-22 20:59 | 51.12240 | -0.37681 | 2419 ft | 146 kts | 81° |
| 2026-04-22 20:59 | 51.12456 | -0.36130 | 2214 ft | 140 kts | 82° |
| 2026-04-22 21:00 | 51.12658 | -0.34656 | 2026 ft | 133 kts | 82° |
| 2026-04-22 21:00 | 51.12855 | -0.33227 | 1845 ft | 132 kts | 81° |
| 2026-04-22 21:00 | 51.13051 | -0.31796 | 1660 ft | 133 kts | 80° |
| 2026-04-22 21:00 | 51.13249 | -0.30364 | 1475 ft | 132 kts | 79° |
| 2026-04-22 21:01 | 51.13440 | -0.28985 | 1305 ft | 124 kts | 78° |
| 2026-04-22 21:01 | 51.13618 | -0.27691 | 1127 ft | 117 kts | 78° |
| 2026-04-22 21:01 | 51.13788 | -0.26434 | 952 ft | 116 kts | 77° |
| 2026-04-22 21:01 | 51.13966 | -0.25146 | 796 ft | 121 kts | 78° |
| 2026-04-22 21:02 | 51.14147 | -0.23833 | 644 ft | 122 kts | 76° |
| 2026-04-22 21:02 | 51.14330 | -0.22516 | 453 ft | 123 kts | 78° |
| 2026-04-22 21:02 | 51.14513 | -0.21187 | 296 ft | 123 kts | 76° |
| 2026-04-22 21:02 | 51.14694 | -0.19875 | 221 ft | 117 kts | 76° |
| 2026-04-22 21:03 | 51.14841 | -0.18816 | 217 ft | 77 kts | 79° |
| 2026-04-22 21:03 | 51.14922 | -0.18223 | 215 ft | 33 kts | 77° |
| 2026-04-22 21:03 | 51.15006 | -0.17902 | 222 ft | 31 kts | 60° |
| 2026-04-22 21:03 | 51.15088 | -0.17764 | 217 ft | 0 kts | 12° |
| 2026-04-22 21:05 | 51.15094 | -0.17762 | 216 ft | 0 kts | 9° |
| 2026-04-22 21:05 | 51.15156 | -0.17730 | 224 ft | 15 kts | 39° |
| 2026-04-22 21:05 | 51.15198 | -0.17566 | 221 ft | 18 kts | 75° |
| 2026-04-22 21:05 | 51.15229 | -0.17357 | 218 ft | 21 kts | 76° |
| 2026-04-22 21:06 | 51.15252 | -0.17182 | 212 ft | 10 kts | 76° |
| 2026-04-22 21:06 | 51.15275 | -0.17019 | 216 ft | 18 kts | 78° |
| 2026-04-22 21:06 | 51.15288 | -0.16923 | 221 ft | 0 kts | 77° |
| 2026-04-22 21:07 | 51.15294 | -0.16885 | 217 ft | 10 kts | 77° |
| 2026-04-22 21:07 | 51.15310 | -0.16773 | 217 ft | 8 kts | 76° |
| 2026-04-22 21:08 | 51.15338 | -0.16682 | 219 ft | 10 kts | 62° |
| 2026-04-22 21:08 | 51.15357 | -0.16591 | 208 ft | 5 kts | 76° |
| 2026-04-22 21:08 | 51.15349 | -0.16524 | 210 ft | 9 kts | 115° |
| 2026-04-22 21:08 | 51.15355 | -0.16493 | 213 ft | 3 kts | 23° |
| 2026-04-22 21:09 | 51.15362 | -0.16575 | 222 ft | 14 kts | 259° |
| 2026-04-22 21:09 | 51.15323 | -0.16723 | 217 ft | 15 kts | 246° |
| 2026-04-22 21:09 | 51.15293 | -0.16899 | 214 ft | 18 kts | 257° |
| 2026-04-22 21:09 | 51.15267 | -0.17088 | 214 ft | 7 kts | 257° |
| 2026-04-22 21:10 | 51.15267 | -0.17090 | 214 ft | 0 kts | 257° |
| 2026-04-22 21:12 | 51.15267 | -0.17092 | 214 ft | 3 kts | 257° |
| 2026-04-22 21:12 | 51.15248 | -0.17275 | 213 ft | 14 kts | 284° |
| 2026-04-22 21:12 | 51.15325 | -0.17357 | 222 ft | 15 kts | 344° |
| 2026-04-22 21:13 | 51.15466 | -0.17408 | 218 ft | 24 kts | 347° |
| 2026-04-22 21:13 | 51.15608 | -0.17458 | 218 ft | 11 kts | 347° |
| 2026-04-22 21:13 | 51.15653 | -0.17474 | 222 ft | 7 kts | 347° |
| 2026-04-22 21:13 | 51.15675 | -0.17481 | 218 ft | 0 kts | 347° |
| 2026-04-22 21:14 | 51.15720 | -0.17491 | 218 ft | 12 kts | 358° |
| 2026-04-22 21:14 | 51.15809 | -0.17497 | 219 ft | 14 kts | 348° |
| 2026-04-22 21:14 | 51.15849 | -0.17512 | 217 ft | 0 kts | 347° |